N2528E MRLB-MPPA
Flight info
| Callsign | N2528E |
|---|---|
| Flight time | 2h 48m |
| Altitude | 9000 |
| Route | LIB R773 PARRI R773 COTOS A502 DAV Q11 STG V11 TBG |
| Aircraft | M20P/L-VGD/C |
Departure
| Time | 2026-04-29 14:15 |
|---|---|
| Airport | Daniel Oduber Quirós International Airport (MRLB) |
Arrival
| Time | 2026-04-29 17:04 |
|---|---|
| Airport | Panamá Pacífico International Airport (MPPA) |
| Time | Latitude | Longitude | Altitude | Speed | Heading |
|---|---|---|---|---|---|
| 2026-04-29 14:08 | 10.59875 | -85.53867 | 271 ft | 0 kts | 70° |
| 2026-04-29 14:12 | 10.59875 | -85.53865 | 271 ft | 2 kts | 74° |
| 2026-04-29 14:12 | 10.59841 | -85.53838 | 271 ft | 10 kts | 165° |
| 2026-04-29 14:12 | 10.59798 | -85.53797 | 271 ft | 9 kts | 75° |
| 2026-04-29 14:12 | 10.59825 | -85.53727 | 272 ft | 13 kts | 69° |
| 2026-04-29 14:13 | 10.59863 | -85.53619 | 273 ft | 19 kts | 68° |
| 2026-04-29 14:13 | 10.59905 | -85.53501 | 274 ft | 17 kts | 71° |
| 2026-04-29 14:13 | 10.59924 | -85.53430 | 274 ft | 15 kts | 79° |
| 2026-04-29 14:13 | 10.59888 | -85.53324 | 275 ft | 14 kts | 152° |
| 2026-04-29 14:14 | 10.59826 | -85.53301 | 274 ft | 14 kts | 165° |
| 2026-04-29 14:14 | 10.59753 | -85.53332 | 274 ft | 15 kts | 251° |
| 2026-04-29 14:14 | 10.59673 | -85.53541 | 273 ft | 49 kts | 256° |
| 2026-04-29 14:14 | 10.59504 | -85.53969 | 268 ft | 82 kts | 250° |
| 2026-04-29 14:15 | 10.59266 | -85.54576 | 337 ft | 96 kts | 247° |
| 2026-04-29 14:15 | 10.59043 | -85.55234 | 480 ft | 102 kts | 255° |
| 2026-04-29 14:15 | 10.58803 | -85.55913 | 693 ft | 106 kts | 250° |
| 2026-04-29 14:15 | 10.58508 | -85.56629 | 891 ft | 111 kts | 251° |
| 2026-04-29 14:16 | 10.58231 | -85.57334 | 1101 ft | 110 kts | 248° |
| 2026-04-29 14:16 | 10.57938 | -85.58079 | 1287 ft | 113 kts | 246° |
| 2026-04-29 14:16 | 10.57652 | -85.58817 | 1499 ft | 111 kts | 245° |
| 2026-04-29 14:16 | 10.57349 | -85.59564 | 1718 ft | 118 kts | 247° |
| 2026-04-29 14:17 | 10.57025 | -85.60410 | 1925 ft | 137 kts | 250° |
| 2026-04-29 14:17 | 10.56660 | -85.61343 | 2164 ft | 150 kts | 248° |
| 2026-04-29 14:17 | 10.56255 | -85.62346 | 2381 ft | 163 kts | 249° |
| 2026-04-29 14:17 | 10.56053 | -85.63497 | 2588 ft | 165 kts | 281° |
| 2026-04-29 14:18 | 10.56524 | -85.64494 | 2803 ft | 152 kts | 323° |
| 2026-04-29 14:18 | 10.57414 | -85.64958 | 3015 ft | 142 kts | 356° |
| 2026-04-29 14:18 | 10.58295 | -85.64929 | 3240 ft | 119 kts | 24° |
| 2026-04-29 14:18 | 10.59005 | -85.64542 | 3451 ft | 114 kts | 44° |
| 2026-04-29 14:19 | 10.59472 | -85.63910 | 3641 ft | 110 kts | 66° |
| 2026-04-29 14:19 | 10.59627 | -85.63195 | 3851 ft | 104 kts | 86° |
| 2026-04-29 14:19 | 10.59602 | -85.62447 | 4075 ft | 108 kts | 89° |
| 2026-04-29 14:19 | 10.59585 | -85.61681 | 4283 ft | 106 kts | 90° |
| 2026-04-29 14:20 | 10.59567 | -85.60929 | 4513 ft | 105 kts | 90° |
| 2026-04-29 14:20 | 10.59549 | -85.60198 | 4729 ft | 104 kts | 89° |
| 2026-04-29 14:20 | 10.59532 | -85.59458 | 4938 ft | 104 kts | 89° |
| 2026-04-29 14:20 | 10.59519 | -85.58732 | 5146 ft | 102 kts | 90° |
| 2026-04-29 14:21 | 10.59500 | -85.58013 | 5360 ft | 100 kts | 89° |
| 2026-04-29 14:21 | 10.59484 | -85.57313 | 5567 ft | 100 kts | 89° |
| 2026-04-29 14:21 | 10.59467 | -85.56616 | 5778 ft | 99 kts | 89° |
| 2026-04-29 14:21 | 10.59452 | -85.55902 | 5972 ft | 102 kts | 89° |
| 2026-04-29 14:22 | 10.59436 | -85.55185 | 6177 ft | 103 kts | 90° |
| 2026-04-29 14:22 | 10.59277 | -85.54450 | 6355 ft | 112 kts | 121° |
| 2026-04-29 14:22 | 10.58752 | -85.53868 | 6544 ft | 111 kts | 126° |
| 2026-04-29 14:22 | 10.58253 | -85.53287 | 6726 ft | 108 kts | 126° |
| 2026-04-29 14:23 | 10.57764 | -85.52723 | 6910 ft | 105 kts | 127° |
| 2026-04-29 14:23 | 10.57282 | -85.52165 | 7098 ft | 104 kts | 126° |
| 2026-04-29 14:23 | 10.56784 | -85.51591 | 7295 ft | 113 kts | 126° |
| 2026-04-29 14:23 | 10.56253 | -85.50978 | 7484 ft | 115 kts | 127° |
| 2026-04-29 14:24 | 10.55720 | -85.50367 | 7680 ft | 115 kts | 127° |
| 2026-04-29 14:24 | 10.55189 | -85.49751 | 7874 ft | 119 kts | 127° |
| 2026-04-29 14:24 | 10.54641 | -85.49121 | 8074 ft | 118 kts | 127° |
| 2026-04-29 14:24 | 10.54103 | -85.48501 | 8255 ft | 117 kts | 128° |
| 2026-04-29 14:25 | 10.53569 | -85.47886 | 8444 ft | 114 kts | 127° |
| 2026-04-29 14:25 | 10.53051 | -85.47286 | 8624 ft | 114 kts | 128° |
| 2026-04-29 14:25 | 10.52516 | -85.46669 | 8795 ft | 117 kts | 128° |
| 2026-04-29 14:25 | 10.51970 | -85.46040 | 8878 ft | 123 kts | 128° |
| 2026-04-29 14:26 | 10.51381 | -85.45362 | 8943 ft | 130 kts | 128° |
| 2026-04-29 14:26 | 10.50770 | -85.44660 | 9006 ft | 136 kts | 129° |
| 2026-04-29 14:26 | 10.50123 | -85.43914 | 9012 ft | 145 kts | 129° |
| 2026-04-29 14:26 | 10.49450 | -85.43137 | 9018 ft | 152 kts | 129° |
| 2026-04-29 14:27 | 10.48724 | -85.42301 | 9013 ft | 160 kts | 129° |
| 2026-04-29 14:27 | 10.47976 | -85.41441 | 9020 ft | 163 kts | 129° |
| 2026-04-29 14:27 | 10.47216 | -85.40566 | 9019 ft | 165 kts | 129° |
| 2026-04-29 14:28 | 10.45681 | -85.38798 | 9013 ft | 168 kts | 129° |
| 2026-04-29 14:28 | 10.44897 | -85.37895 | 9012 ft | 170 kts | 129° |
| 2026-04-29 14:28 | 10.44123 | -85.37001 | 9006 ft | 168 kts | 129° |
| 2026-04-29 14:28 | 10.43352 | -85.36116 | 9005 ft | 164 kts | 129° |
| 2026-04-29 14:29 | 10.42610 | -85.35261 | 9000 ft | 162 kts | 129° |
| 2026-04-29 14:29 | 10.41865 | -85.34403 | 8998 ft | 160 kts | 129° |
| 2026-04-29 14:29 | 10.41137 | -85.33563 | 8997 ft | 160 kts | 129° |
| 2026-04-29 14:29 | 10.40395 | -85.32708 | 8999 ft | 161 kts | 129° |
| 2026-04-29 14:30 | 10.39651 | -85.31852 | 9016 ft | 164 kts | 129° |
| 2026-04-29 14:30 | 10.38892 | -85.30979 | 9004 ft | 163 kts | 129° |
| 2026-04-29 14:30 | 10.38152 | -85.30128 | 9013 ft | 163 kts | 129° |
| 2026-04-29 14:30 | 10.37398 | -85.29260 | 9006 ft | 162 kts | 129° |
| 2026-04-29 14:31 | 10.36662 | -85.28410 | 9015 ft | 161 kts | 129° |
| 2026-04-29 14:31 | 10.35907 | -85.27542 | 9009 ft | 163 kts | 129° |
| 2026-04-29 14:31 | 10.35167 | -85.26691 | 9006 ft | 161 kts | 129° |
| 2026-04-29 14:31 | 10.34418 | -85.25829 | 9008 ft | 162 kts | 129° |
| 2026-04-29 14:32 | 10.33678 | -85.24977 | 9007 ft | 160 kts | 129° |
| 2026-04-29 14:32 | 10.32950 | -85.24140 | 9010 ft | 158 kts | 129° |
| 2026-04-29 14:32 | 10.32220 | -85.23300 | 9007 ft | 157 kts | 129° |
| 2026-04-29 14:32 | 10.31503 | -85.22475 | 9013 ft | 158 kts | 129° |
| 2026-04-29 14:33 | 10.30762 | -85.21624 | 9013 ft | 161 kts | 129° |
| 2026-04-29 14:33 | 10.30022 | -85.20773 | 9009 ft | 159 kts | 129° |
| 2026-04-29 14:33 | 10.29297 | -85.19940 | 9011 ft | 158 kts | 129° |
| 2026-04-29 14:33 | 10.28556 | -85.19088 | 9011 ft | 160 kts | 129° |
| 2026-04-29 14:34 | 10.27827 | -85.18250 | 9017 ft | 161 kts | 129° |
| 2026-04-29 14:34 | 10.27077 | -85.17387 | 9020 ft | 163 kts | 130° |
| 2026-04-29 14:34 | 10.26337 | -85.16538 | 9014 ft | 161 kts | 130° |
| 2026-04-29 14:34 | 10.25587 | -85.15674 | 9026 ft | 163 kts | 129° |
| 2026-04-29 14:35 | 10.24833 | -85.14810 | 9020 ft | 163 kts | 130° |
| 2026-04-29 14:35 | 10.24082 | -85.13948 | 9019 ft | 162 kts | 129° |
| 2026-04-29 14:35 | 10.23347 | -85.13103 | 9013 ft | 160 kts | 129° |
| 2026-04-29 14:35 | 10.22610 | -85.12257 | 9012 ft | 159 kts | 129° |
| 2026-04-29 14:36 | 10.21878 | -85.11414 | 9015 ft | 161 kts | 130° |
| 2026-04-29 14:36 | 10.21143 | -85.10570 | 9009 ft | 159 kts | 130° |
| 2026-04-29 14:36 | 10.20408 | -85.09726 | 9014 ft | 158 kts | 129° |
| 2026-04-29 14:36 | 10.19687 | -85.08898 | 9009 ft | 158 kts | 130° |
| 2026-04-29 14:37 | 10.18953 | -85.08055 | 9008 ft | 157 kts | 130° |
| 2026-04-29 14:37 | 10.18229 | -85.07224 | 9009 ft | 160 kts | 130° |
| 2026-04-29 14:37 | 10.17479 | -85.06365 | 9017 ft | 163 kts | 129° |
| 2026-04-29 14:37 | 10.16735 | -85.05510 | 9011 ft | 162 kts | 130° |
| 2026-04-29 14:38 | 10.15990 | -85.04654 | 9011 ft | 160 kts | 130° |
| 2026-04-29 14:38 | 10.15256 | -85.03811 | 9014 ft | 161 kts | 130° |
| 2026-04-29 14:38 | 10.14514 | -85.02958 | 9019 ft | 161 kts | 130° |
| 2026-04-29 14:38 | 10.13774 | -85.02110 | 9023 ft | 162 kts | 130° |
| 2026-04-29 14:39 | 10.13016 | -85.01241 | 9025 ft | 163 kts | 130° |
| 2026-04-29 14:39 | 10.12267 | -85.00382 | 9020 ft | 164 kts | 130° |
| 2026-04-29 14:39 | 10.11512 | -84.99516 | 9010 ft | 161 kts | 130° |
| 2026-04-29 14:39 | 10.10777 | -84.98674 | 9010 ft | 160 kts | 130° |
| 2026-04-29 14:40 | 10.10040 | -84.97823 | 9010 ft | 159 kts | 130° |
| 2026-04-29 14:40 | 10.09315 | -84.96992 | 9010 ft | 159 kts | 130° |
| 2026-04-29 14:40 | 10.08577 | -84.96151 | 9012 ft | 160 kts | 130° |
| 2026-04-29 14:40 | 10.07837 | -84.95300 | 9012 ft | 159 kts | 130° |
| 2026-04-29 14:41 | 10.07112 | -84.94467 | 9012 ft | 159 kts | 130° |
| 2026-04-29 14:41 | 10.06382 | -84.93629 | 9009 ft | 158 kts | 130° |
| 2026-04-29 14:41 | 10.05646 | -84.92788 | 8997 ft | 159 kts | 130° |
| 2026-04-29 14:41 | 10.04911 | -84.91945 | 8996 ft | 160 kts | 130° |
| 2026-04-29 14:42 | 10.04168 | -84.91093 | 8996 ft | 159 kts | 130° |
| 2026-04-29 14:42 | 10.03438 | -84.90256 | 8999 ft | 159 kts | 130° |
| 2026-04-29 14:42 | 10.02710 | -84.89419 | 9001 ft | 159 kts | 130° |
| 2026-04-29 14:42 | 10.01975 | -84.88576 | 8999 ft | 158 kts | 130° |
| 2026-04-29 14:43 | 10.01250 | -84.87747 | 9000 ft | 158 kts | 130° |
| 2026-04-29 14:43 | 10.00516 | -84.86906 | 9000 ft | 159 kts | 130° |
| 2026-04-29 14:43 | 9.99789 | -84.86072 | 8999 ft | 159 kts | 130° |
| 2026-04-29 14:43 | 9.99059 | -84.85236 | 8999 ft | 159 kts | 130° |
| 2026-04-29 14:44 | 9.98326 | -84.84397 | 8999 ft | 158 kts | 130° |
| 2026-04-29 14:44 | 9.97598 | -84.83563 | 9000 ft | 159 kts | 130° |
| 2026-04-29 14:44 | 9.96862 | -84.82719 | 8998 ft | 159 kts | 130° |
| 2026-04-29 14:44 | 9.96135 | -84.81885 | 8998 ft | 158 kts | 130° |
| 2026-04-29 14:45 | 9.95408 | -84.81053 | 8997 ft | 158 kts | 130° |
| 2026-04-29 14:45 | 9.94674 | -84.80213 | 8995 ft | 158 kts | 130° |
| 2026-04-29 14:45 | 9.93942 | -84.79374 | 8997 ft | 158 kts | 130° |
| 2026-04-29 14:45 | 9.93218 | -84.78545 | 8998 ft | 158 kts | 130° |
| 2026-04-29 14:46 | 9.92496 | -84.77718 | 8996 ft | 158 kts | 130° |
| 2026-04-29 14:46 | 9.91762 | -84.76878 | 8995 ft | 157 kts | 130° |
| 2026-04-29 14:46 | 9.91043 | -84.76054 | 8989 ft | 157 kts | 130° |
| 2026-04-29 14:46 | 9.90315 | -84.75220 | 8992 ft | 157 kts | 130° |
| 2026-04-29 14:47 | 9.89599 | -84.74401 | 8992 ft | 157 kts | 130° |
| 2026-04-29 14:47 | 9.88875 | -84.73571 | 8992 ft | 157 kts | 130° |
| 2026-04-29 14:47 | 9.88154 | -84.72746 | 8991 ft | 157 kts | 130° |
| 2026-04-29 14:47 | 9.87668 | -84.72190 | 8990 ft | 157 kts | 130° |
| 2026-04-29 14:48 | 9.86706 | -84.71089 | 8990 ft | 157 kts | 130° |
| 2026-04-29 14:48 | 9.85985 | -84.70263 | 8989 ft | 157 kts | 130° |
| 2026-04-29 14:48 | 9.85248 | -84.69422 | 8991 ft | 158 kts | 130° |
| 2026-04-29 14:48 | 9.84524 | -84.68593 | 8992 ft | 158 kts | 130° |
| 2026-04-29 14:49 | 9.83790 | -84.67753 | 8995 ft | 158 kts | 130° |
| 2026-04-29 14:49 | 9.83059 | -84.66917 | 8994 ft | 159 kts | 130° |
| 2026-04-29 14:49 | 9.82322 | -84.66071 | 8996 ft | 159 kts | 130° |
| 2026-04-29 14:49 | 9.81590 | -84.65237 | 8994 ft | 159 kts | 130° |
| 2026-04-29 14:50 | 9.80852 | -84.64393 | 8992 ft | 159 kts | 130° |
| 2026-04-29 14:50 | 9.80126 | -84.63561 | 8993 ft | 158 kts | 130° |
| 2026-04-29 14:50 | 9.79389 | -84.62718 | 8990 ft | 158 kts | 130° |
| 2026-04-29 14:50 | 9.78659 | -84.61883 | 8990 ft | 158 kts | 130° |
| 2026-04-29 14:51 | 9.77925 | -84.61045 | 8991 ft | 159 kts | 130° |
| 2026-04-29 14:51 | 9.77198 | -84.60211 | 8991 ft | 159 kts | 130° |
| 2026-04-29 14:51 | 9.76470 | -84.59379 | 8994 ft | 159 kts | 130° |
| 2026-04-29 14:51 | 9.75726 | -84.58531 | 8994 ft | 160 kts | 130° |
| 2026-04-29 14:52 | 9.74996 | -84.57696 | 8994 ft | 160 kts | 130° |
| 2026-04-29 14:52 | 9.74252 | -84.56842 | 8997 ft | 163 kts | 130° |
| 2026-04-29 14:52 | 9.73502 | -84.55987 | 8994 ft | 164 kts | 130° |
| 2026-04-29 14:52 | 9.72744 | -84.55123 | 9002 ft | 163 kts | 130° |
| 2026-04-29 14:53 | 9.71991 | -84.54263 | 8997 ft | 164 kts | 130° |
| 2026-04-29 14:53 | 9.71243 | -84.53405 | 8994 ft | 162 kts | 130° |
| 2026-04-29 14:53 | 9.70492 | -84.52547 | 8990 ft | 161 kts | 130° |
| 2026-04-29 14:53 | 9.69747 | -84.51697 | 8996 ft | 161 kts | 130° |
| 2026-04-29 14:54 | 9.68996 | -84.50838 | 8989 ft | 162 kts | 130° |
| 2026-04-29 14:54 | 9.68253 | -84.49990 | 8987 ft | 163 kts | 130° |
| 2026-04-29 14:54 | 9.67489 | -84.49118 | 8998 ft | 164 kts | 130° |
| 2026-04-29 14:54 | 9.66738 | -84.48259 | 8994 ft | 163 kts | 130° |
| 2026-04-29 14:55 | 9.65990 | -84.47403 | 8993 ft | 163 kts | 130° |
| 2026-04-29 14:55 | 9.65243 | -84.46551 | 8992 ft | 162 kts | 130° |
| 2026-04-29 14:55 | 9.64493 | -84.45695 | 8993 ft | 163 kts | 130° |
| 2026-04-29 14:55 | 9.63743 | -84.44837 | 8995 ft | 163 kts | 130° |
| 2026-04-29 14:56 | 9.62986 | -84.43973 | 9001 ft | 163 kts | 130° |
| 2026-04-29 14:56 | 9.62237 | -84.43120 | 8993 ft | 163 kts | 130° |
| 2026-04-29 14:56 | 9.61483 | -84.42259 | 8992 ft | 162 kts | 130° |
| 2026-04-29 14:56 | 9.60985 | -84.41690 | 8999 ft | 163 kts | 130° |
| 2026-04-29 14:57 | 9.59982 | -84.40545 | 9001 ft | 163 kts | 130° |
| 2026-04-29 14:57 | 9.59232 | -84.39690 | 8998 ft | 163 kts | 130° |
| 2026-04-29 14:57 | 9.58730 | -84.39115 | 9000 ft | 163 kts | 130° |
| 2026-04-29 14:57 | 9.57731 | -84.37975 | 8994 ft | 162 kts | 130° |
| 2026-04-29 14:58 | 9.57235 | -84.37410 | 8996 ft | 162 kts | 130° |
| 2026-04-29 14:58 | 9.56481 | -84.36549 | 9002 ft | 163 kts | 130° |
| 2026-04-29 14:58 | 9.55738 | -84.35699 | 8999 ft | 162 kts | 130° |
| 2026-04-29 14:58 | 9.54984 | -84.34841 | 8999 ft | 161 kts | 130° |
| 2026-04-29 14:59 | 9.54239 | -84.33992 | 8997 ft | 163 kts | 130° |
| 2026-04-29 14:59 | 9.53493 | -84.33140 | 9000 ft | 162 kts | 130° |
| 2026-04-29 14:59 | 9.52745 | -84.32285 | 8996 ft | 160 kts | 130° |
| 2026-04-29 14:59 | 9.52063 | -84.31413 | 8992 ft | 158 kts | 122° |
| 2026-04-29 15:00 | 9.51448 | -84.30487 | 9006 ft | 159 kts | 124° |
| 2026-04-29 15:00 | 9.50807 | -84.29551 | 9002 ft | 161 kts | 123° |
| 2026-04-29 15:00 | 9.50175 | -84.28623 | 9009 ft | 162 kts | 123° |
| 2026-04-29 15:00 | 9.49530 | -84.27670 | 9010 ft | 163 kts | 123° |
| 2026-04-29 15:01 | 9.48889 | -84.26721 | 9006 ft | 161 kts | 123° |
| 2026-04-29 15:01 | 9.48260 | -84.25791 | 9006 ft | 160 kts | 123° |
| 2026-04-29 15:01 | 9.47627 | -84.24856 | 9000 ft | 160 kts | 123° |
| 2026-04-29 15:01 | 9.47005 | -84.23934 | 9000 ft | 160 kts | 123° |
| 2026-04-29 15:02 | 9.46373 | -84.22996 | 8999 ft | 161 kts | 123° |
| 2026-04-29 15:02 | 9.45745 | -84.22071 | 9000 ft | 160 kts | 123° |
| 2026-04-29 15:02 | 9.45121 | -84.21148 | 9007 ft | 159 kts | 123° |
| 2026-04-29 15:02 | 9.44496 | -84.20223 | 9008 ft | 158 kts | 123° |
| 2026-04-29 15:03 | 9.43874 | -84.19305 | 9005 ft | 158 kts | 123° |
| 2026-04-29 15:03 | 9.43250 | -84.18381 | 9005 ft | 158 kts | 123° |
| 2026-04-29 15:03 | 9.42634 | -84.17471 | 9000 ft | 158 kts | 123° |
| 2026-04-29 15:03 | 9.42019 | -84.16561 | 9003 ft | 157 kts | 123° |
| 2026-04-29 15:04 | 9.41399 | -84.15644 | 8999 ft | 158 kts | 123° |
| 2026-04-29 15:04 | 9.40782 | -84.14732 | 9005 ft | 158 kts | 124° |
| 2026-04-29 15:04 | 9.40156 | -84.13809 | 9001 ft | 158 kts | 123° |
| 2026-04-29 15:04 | 9.39537 | -84.12894 | 9003 ft | 158 kts | 123° |
| 2026-04-29 15:05 | 9.38920 | -84.11980 | 9003 ft | 158 kts | 123° |
| 2026-04-29 15:05 | 9.38295 | -84.11057 | 9005 ft | 158 kts | 123° |
| 2026-04-29 15:05 | 9.37679 | -84.10148 | 9008 ft | 158 kts | 123° |
| 2026-04-29 15:05 | 9.37054 | -84.09224 | 9005 ft | 158 kts | 123° |
| 2026-04-29 15:06 | 9.36438 | -84.08315 | 9006 ft | 158 kts | 123° |
| 2026-04-29 15:06 | 9.35819 | -84.07400 | 9008 ft | 157 kts | 123° |
| 2026-04-29 15:06 | 9.35204 | -84.06491 | 9005 ft | 157 kts | 123° |
| 2026-04-29 15:06 | 9.34587 | -84.05580 | 9003 ft | 157 kts | 123° |
| 2026-04-29 15:07 | 9.33967 | -84.04665 | 9004 ft | 157 kts | 123° |
| 2026-04-29 15:07 | 9.33346 | -84.03749 | 9003 ft | 157 kts | 123° |
| 2026-04-29 15:07 | 9.32734 | -84.02843 | 9003 ft | 157 kts | 123° |
| 2026-04-29 15:07 | 9.32110 | -84.01923 | 9007 ft | 157 kts | 123° |
| 2026-04-29 15:08 | 9.31495 | -84.01015 | 9003 ft | 157 kts | 123° |
| 2026-04-29 15:08 | 9.30879 | -84.00105 | 9002 ft | 157 kts | 123° |
| 2026-04-29 15:08 | 9.30256 | -83.99186 | 9001 ft | 157 kts | 123° |
| 2026-04-29 15:08 | 9.29644 | -83.98282 | 9001 ft | 156 kts | 123° |
| 2026-04-29 15:09 | 9.29031 | -83.97378 | 8999 ft | 156 kts | 123° |
| 2026-04-29 15:09 | 9.28409 | -83.96460 | 9000 ft | 156 kts | 123° |
| 2026-04-29 15:09 | 9.27799 | -83.95561 | 9001 ft | 156 kts | 123° |
| 2026-04-29 15:09 | 9.27179 | -83.94643 | 9002 ft | 157 kts | 123° |
| 2026-04-29 15:10 | 9.26565 | -83.93738 | 8999 ft | 157 kts | 123° |
| 2026-04-29 15:10 | 9.25949 | -83.92829 | 9001 ft | 157 kts | 123° |
| 2026-04-29 15:10 | 9.25327 | -83.91913 | 8999 ft | 157 kts | 123° |
| 2026-04-29 15:10 | 9.24706 | -83.90995 | 8999 ft | 157 kts | 123° |
| 2026-04-29 15:11 | 9.24091 | -83.90089 | 8998 ft | 157 kts | 123° |
| 2026-04-29 15:11 | 9.23473 | -83.89178 | 8998 ft | 157 kts | 123° |
| 2026-04-29 15:11 | 9.22858 | -83.88270 | 8999 ft | 157 kts | 123° |
| 2026-04-29 15:11 | 9.22245 | -83.87366 | 8999 ft | 157 kts | 123° |
| 2026-04-29 15:12 | 9.21623 | -83.86448 | 8998 ft | 157 kts | 123° |
| 2026-04-29 15:12 | 9.21009 | -83.85543 | 9001 ft | 157 kts | 123° |
| 2026-04-29 15:12 | 9.20391 | -83.84632 | 8998 ft | 156 kts | 123° |
| 2026-04-29 15:12 | 9.19780 | -83.83731 | 8997 ft | 156 kts | 123° |
| 2026-04-29 15:13 | 9.19160 | -83.82818 | 8998 ft | 156 kts | 123° |
| 2026-04-29 15:13 | 9.18543 | -83.81908 | 8996 ft | 156 kts | 123° |
| 2026-04-29 15:13 | 9.17934 | -83.81009 | 8994 ft | 156 kts | 123° |
| 2026-04-29 15:13 | 9.17322 | -83.80107 | 8996 ft | 156 kts | 123° |
| 2026-04-29 15:14 | 9.16700 | -83.79192 | 8992 ft | 156 kts | 123° |
| 2026-04-29 15:14 | 9.16089 | -83.78291 | 8992 ft | 156 kts | 123° |
| 2026-04-29 15:14 | 9.15479 | -83.77391 | 8993 ft | 156 kts | 123° |
| 2026-04-29 15:14 | 9.14862 | -83.76483 | 8993 ft | 156 kts | 123° |
| 2026-04-29 15:15 | 9.14245 | -83.75579 | 8991 ft | 157 kts | 123° |
| 2026-04-29 15:15 | 9.13635 | -83.74675 | 8992 ft | 156 kts | 123° |
| 2026-04-29 15:15 | 9.13015 | -83.73760 | 8990 ft | 156 kts | 123° |
| 2026-04-29 15:15 | 9.12402 | -83.72858 | 8990 ft | 156 kts | 123° |
| 2026-04-29 15:16 | 9.11784 | -83.71948 | 8988 ft | 156 kts | 123° |
| 2026-04-29 15:16 | 9.11166 | -83.71038 | 8989 ft | 156 kts | 123° |
| 2026-04-29 15:16 | 9.10555 | -83.70138 | 8989 ft | 156 kts | 123° |
| 2026-04-29 15:16 | 9.09945 | -83.69240 | 8993 ft | 156 kts | 123° |
| 2026-04-29 15:17 | 9.09327 | -83.68330 | 8996 ft | 156 kts | 123° |
| 2026-04-29 15:17 | 9.08713 | -83.67426 | 8994 ft | 156 kts | 123° |
| 2026-04-29 15:17 | 9.08102 | -83.66527 | 8990 ft | 156 kts | 123° |
| 2026-04-29 15:17 | 9.07481 | -83.65613 | 8995 ft | 157 kts | 124° |
| 2026-04-29 15:18 | 9.06865 | -83.64707 | 8992 ft | 157 kts | 123° |
| 2026-04-29 15:18 | 9.06244 | -83.63788 | 8993 ft | 157 kts | 123° |
| 2026-04-29 15:18 | 9.05629 | -83.62885 | 8993 ft | 156 kts | 123° |
| 2026-04-29 15:18 | 9.05014 | -83.61980 | 9000 ft | 157 kts | 123° |
| 2026-04-29 15:19 | 9.04383 | -83.61050 | 8997 ft | 162 kts | 123° |
| 2026-04-29 15:19 | 9.03748 | -83.60120 | 9005 ft | 162 kts | 123° |
| 2026-04-29 15:19 | 9.03114 | -83.59184 | 8998 ft | 160 kts | 123° |
| 2026-04-29 15:19 | 9.02483 | -83.58255 | 9003 ft | 163 kts | 124° |
| 2026-04-29 15:20 | 9.01840 | -83.57312 | 8992 ft | 162 kts | 123° |
| 2026-04-29 15:20 | 9.01203 | -83.56369 | 8999 ft | 161 kts | 123° |
| 2026-04-29 15:20 | 9.00576 | -83.55449 | 8988 ft | 160 kts | 123° |
| 2026-04-29 15:20 | 8.99941 | -83.54516 | 8992 ft | 160 kts | 123° |
| 2026-04-29 15:21 | 8.99309 | -83.53590 | 8989 ft | 160 kts | 123° |
| 2026-04-29 15:21 | 8.98685 | -83.52669 | 8990 ft | 159 kts | 123° |
| 2026-04-29 15:21 | 8.98054 | -83.51741 | 8988 ft | 159 kts | 123° |
| 2026-04-29 15:21 | 8.97435 | -83.50831 | 8983 ft | 158 kts | 123° |
| 2026-04-29 15:22 | 8.96810 | -83.49912 | 8981 ft | 157 kts | 123° |
| 2026-04-29 15:22 | 8.96196 | -83.49008 | 8982 ft | 157 kts | 123° |
| 2026-04-29 15:22 | 8.95574 | -83.48094 | 8983 ft | 157 kts | 123° |
| 2026-04-29 15:22 | 8.94955 | -83.47184 | 8982 ft | 160 kts | 123° |
| 2026-04-29 15:23 | 8.94326 | -83.46260 | 8982 ft | 160 kts | 123° |
| 2026-04-29 15:23 | 8.93691 | -83.45326 | 8995 ft | 160 kts | 123° |
| 2026-04-29 15:23 | 8.93058 | -83.44392 | 8995 ft | 164 kts | 123° |
| 2026-04-29 15:23 | 8.92404 | -83.43437 | 8986 ft | 164 kts | 123° |
| 2026-04-29 15:24 | 8.91767 | -83.42497 | 8988 ft | 161 kts | 123° |
| 2026-04-29 15:24 | 8.91133 | -83.41566 | 8993 ft | 160 kts | 124° |
| 2026-04-29 15:24 | 8.90502 | -83.40640 | 8993 ft | 162 kts | 122° |
| 2026-04-29 15:24 | 8.89860 | -83.39692 | 8992 ft | 163 kts | 123° |
| 2026-04-29 15:25 | 8.89220 | -83.38755 | 8991 ft | 163 kts | 123° |
| 2026-04-29 15:25 | 8.88573 | -83.37806 | 8983 ft | 162 kts | 123° |
| 2026-04-29 15:25 | 8.87943 | -83.36880 | 8978 ft | 160 kts | 123° |
| 2026-04-29 15:25 | 8.87310 | -83.35951 | 8978 ft | 159 kts | 123° |
| 2026-04-29 15:26 | 8.86685 | -83.35031 | 8987 ft | 159 kts | 123° |
| 2026-04-29 15:26 | 8.86059 | -83.34116 | 8985 ft | 161 kts | 123° |
| 2026-04-29 15:26 | 8.85419 | -83.33172 | 8979 ft | 162 kts | 123° |
| 2026-04-29 15:26 | 8.84782 | -83.32238 | 8982 ft | 162 kts | 123° |
| 2026-04-29 15:27 | 8.84149 | -83.31306 | 8984 ft | 161 kts | 123° |
| 2026-04-29 15:27 | 8.83507 | -83.30364 | 8979 ft | 161 kts | 123° |
| 2026-04-29 15:27 | 8.82881 | -83.29443 | 8985 ft | 160 kts | 122° |
| 2026-04-29 15:27 | 8.82244 | -83.28510 | 8977 ft | 160 kts | 123° |
| 2026-04-29 15:28 | 8.81617 | -83.27590 | 8974 ft | 159 kts | 123° |
| 2026-04-29 15:28 | 8.81198 | -83.26976 | 8973 ft | 158 kts | 123° |
| 2026-04-29 15:28 | 8.80362 | -83.25748 | 8979 ft | 158 kts | 123° |
| 2026-04-29 15:28 | 8.79742 | -83.24840 | 8971 ft | 158 kts | 123° |
| 2026-04-29 15:29 | 8.79126 | -83.23933 | 8971 ft | 156 kts | 123° |
| 2026-04-29 15:29 | 8.77893 | -83.22125 | 8979 ft | 155 kts | 123° |
| 2026-04-29 15:30 | 8.76664 | -83.20322 | 8976 ft | 156 kts | 123° |
| 2026-04-29 15:30 | 8.76051 | -83.19422 | 8983 ft | 156 kts | 123° |
| 2026-04-29 15:30 | 8.75430 | -83.18510 | 8971 ft | 156 kts | 123° |
| 2026-04-29 15:30 | 8.74817 | -83.17611 | 8973 ft | 156 kts | 123° |
| 2026-04-29 15:31 | 8.74203 | -83.16711 | 8972 ft | 155 kts | 123° |
| 2026-04-29 15:31 | 8.73593 | -83.15817 | 8973 ft | 155 kts | 123° |
| 2026-04-29 15:31 | 8.72976 | -83.14910 | 8974 ft | 155 kts | 123° |
| 2026-04-29 15:31 | 8.72369 | -83.14022 | 8975 ft | 153 kts | 123° |
| 2026-04-29 15:32 | 8.71759 | -83.13127 | 8971 ft | 154 kts | 123° |
| 2026-04-29 15:32 | 8.71156 | -83.12245 | 8970 ft | 153 kts | 123° |
| 2026-04-29 15:32 | 8.70552 | -83.11357 | 8974 ft | 154 kts | 123° |
| 2026-04-29 15:32 | 8.69935 | -83.10453 | 8977 ft | 155 kts | 123° |
| 2026-04-29 15:33 | 8.69326 | -83.09560 | 8971 ft | 155 kts | 122° |
| 2026-04-29 15:33 | 8.68719 | -83.08668 | 8976 ft | 155 kts | 123° |
| 2026-04-29 15:33 | 8.68100 | -83.07763 | 8973 ft | 158 kts | 122° |
| 2026-04-29 15:33 | 8.67465 | -83.06832 | 8976 ft | 160 kts | 123° |
| 2026-04-29 15:34 | 8.66832 | -83.05904 | 8977 ft | 159 kts | 123° |
| 2026-04-29 15:34 | 8.66208 | -83.04992 | 8978 ft | 159 kts | 123° |
| 2026-04-29 15:34 | 8.65588 | -83.04083 | 8977 ft | 158 kts | 123° |
| 2026-04-29 15:34 | 8.64961 | -83.03162 | 8971 ft | 157 kts | 123° |
| 2026-04-29 15:35 | 8.64341 | -83.02253 | 8972 ft | 157 kts | 123° |
| 2026-04-29 15:35 | 8.63722 | -83.01346 | 8970 ft | 157 kts | 123° |
| 2026-04-29 15:35 | 8.63105 | -83.00444 | 8971 ft | 156 kts | 123° |
| 2026-04-29 15:35 | 8.62478 | -82.99523 | 8969 ft | 158 kts | 123° |
| 2026-04-29 15:36 | 8.61859 | -82.98618 | 8970 ft | 157 kts | 123° |
| 2026-04-29 15:36 | 8.61234 | -82.97703 | 8971 ft | 157 kts | 123° |
| 2026-04-29 15:36 | 8.60682 | -82.96761 | 8971 ft | 156 kts | 111° |
| 2026-04-29 15:36 | 8.60278 | -82.95747 | 8972 ft | 156 kts | 111° |
| 2026-04-29 15:37 | 8.59859 | -82.94732 | 8968 ft | 156 kts | 111° |
| 2026-04-29 15:37 | 8.59442 | -82.93726 | 8969 ft | 156 kts | 111° |
| 2026-04-29 15:37 | 8.59023 | -82.92712 | 8967 ft | 156 kts | 111° |
| 2026-04-29 15:37 | 8.58599 | -82.91691 | 8968 ft | 157 kts | 111° |
| 2026-04-29 15:38 | 8.58184 | -82.90686 | 8965 ft | 156 kts | 111° |
| 2026-04-29 15:38 | 8.57762 | -82.89666 | 8965 ft | 156 kts | 111° |
| 2026-04-29 15:38 | 8.57345 | -82.88658 | 8970 ft | 156 kts | 111° |
| 2026-04-29 15:38 | 8.56928 | -82.87651 | 8970 ft | 155 kts | 111° |
| 2026-04-29 15:39 | 8.56513 | -82.86650 | 8974 ft | 155 kts | 111° |
| 2026-04-29 15:39 | 8.56234 | -82.85978 | 8967 ft | 156 kts | 111° |
| 2026-04-29 15:39 | 8.55813 | -82.84962 | 8966 ft | 155 kts | 111° |
| 2026-04-29 15:39 | 8.55262 | -82.83626 | 8966 ft | 156 kts | 111° |
| 2026-04-29 15:40 | 8.54982 | -82.82955 | 8967 ft | 156 kts | 111° |
| 2026-04-29 15:40 | 8.54554 | -82.81934 | 8960 ft | 156 kts | 111° |
| 2026-04-29 15:40 | 8.54136 | -82.80935 | 8969 ft | 155 kts | 111° |
| 2026-04-29 15:40 | 8.53716 | -82.79929 | 8967 ft | 156 kts | 111° |
| 2026-04-29 15:41 | 8.53291 | -82.78910 | 8963 ft | 156 kts | 111° |
| 2026-04-29 15:41 | 8.52873 | -82.77912 | 8965 ft | 155 kts | 111° |
| 2026-04-29 15:41 | 8.52451 | -82.76904 | 8958 ft | 157 kts | 111° |
| 2026-04-29 15:41 | 8.52027 | -82.75885 | 8965 ft | 156 kts | 111° |
| 2026-04-29 15:42 | 8.51605 | -82.74872 | 8959 ft | 155 kts | 111° |
| 2026-04-29 15:42 | 8.51188 | -82.73877 | 8958 ft | 155 kts | 111° |
| 2026-04-29 15:42 | 8.50768 | -82.72871 | 8969 ft | 155 kts | 111° |
| 2026-04-29 15:42 | 8.50347 | -82.71863 | 8957 ft | 158 kts | 111° |
| 2026-04-29 15:43 | 8.49923 | -82.70849 | 8962 ft | 158 kts | 111° |
| 2026-04-29 15:43 | 8.49495 | -82.69826 | 8956 ft | 156 kts | 111° |
| 2026-04-29 15:43 | 8.49074 | -82.68822 | 8956 ft | 156 kts | 111° |
| 2026-04-29 15:43 | 8.48652 | -82.67816 | 8959 ft | 157 kts | 111° |
| 2026-04-29 15:44 | 8.48227 | -82.66791 | 8960 ft | 157 kts | 111° |
| 2026-04-29 15:44 | 8.47803 | -82.65774 | 8950 ft | 158 kts | 111° |
| 2026-04-29 15:44 | 8.47377 | -82.64760 | 8956 ft | 158 kts | 111° |
| 2026-04-29 15:44 | 8.46946 | -82.63726 | 8953 ft | 157 kts | 111° |
| 2026-04-29 15:45 | 8.46519 | -82.62702 | 8950 ft | 159 kts | 111° |
| 2026-04-29 15:45 | 8.46090 | -82.61680 | 8965 ft | 158 kts | 111° |
| 2026-04-29 15:45 | 8.45662 | -82.60658 | 8959 ft | 161 kts | 110° |
| 2026-04-29 15:45 | 8.45222 | -82.59604 | 8949 ft | 161 kts | 111° |
| 2026-04-29 15:46 | 8.44790 | -82.58575 | 8952 ft | 159 kts | 111° |
| 2026-04-29 15:46 | 8.44363 | -82.57549 | 8951 ft | 160 kts | 111° |
| 2026-04-29 15:46 | 8.43928 | -82.56513 | 8950 ft | 158 kts | 111° |
| 2026-04-29 15:46 | 8.43504 | -82.55502 | 8954 ft | 160 kts | 110° |
| 2026-04-29 15:47 | 8.43066 | -82.54448 | 8954 ft | 164 kts | 111° |
| 2026-04-29 15:47 | 8.42616 | -82.53378 | 8954 ft | 165 kts | 111° |
| 2026-04-29 15:47 | 8.42173 | -82.52319 | 8959 ft | 162 kts | 110° |
| 2026-04-29 15:47 | 8.41736 | -82.51273 | 8954 ft | 161 kts | 111° |
| 2026-04-29 15:48 | 8.41301 | -82.50232 | 8962 ft | 161 kts | 111° |
| 2026-04-29 15:48 | 8.40860 | -82.49188 | 8947 ft | 163 kts | 111° |
| 2026-04-29 15:48 | 8.40433 | -82.48162 | 8994 ft | 158 kts | 111° |
| 2026-04-29 15:48 | 8.40007 | -82.47143 | 8994 ft | 157 kts | 111° |
| 2026-04-29 15:49 | 8.39580 | -82.46125 | 9002 ft | 157 kts | 111° |
| 2026-04-29 15:49 | 8.39155 | -82.45110 | 9007 ft | 159 kts | 111° |
| 2026-04-29 15:49 | 8.38719 | -82.44067 | 9006 ft | 160 kts | 111° |
| 2026-04-29 15:49 | 8.38432 | -82.42997 | 9001 ft | 160 kts | 98° |
| 2026-04-29 15:50 | 8.38234 | -82.41882 | 9004 ft | 163 kts | 99° |
| 2026-04-29 15:50 | 8.38021 | -82.40751 | 9008 ft | 163 kts | 99° |
| 2026-04-29 15:50 | 8.37806 | -82.39629 | 9004 ft | 165 kts | 99° |
| 2026-04-29 15:50 | 8.37588 | -82.38488 | 8999 ft | 163 kts | 99° |
| 2026-04-29 15:51 | 8.37375 | -82.37371 | 8995 ft | 163 kts | 99° |
| 2026-04-29 15:51 | 8.37161 | -82.36253 | 9007 ft | 164 kts | 99° |
| 2026-04-29 15:51 | 8.36949 | -82.35116 | 8996 ft | 163 kts | 99° |
| 2026-04-29 15:51 | 8.36736 | -82.34010 | 8995 ft | 160 kts | 99° |
| 2026-04-29 15:52 | 8.36523 | -82.32887 | 9005 ft | 163 kts | 99° |
| 2026-04-29 15:52 | 8.36310 | -82.31773 | 8995 ft | 161 kts | 99° |
| 2026-04-29 15:52 | 8.36103 | -82.30678 | 8994 ft | 159 kts | 99° |
| 2026-04-29 15:52 | 8.35891 | -82.29566 | 8991 ft | 161 kts | 99° |
| 2026-04-29 15:53 | 8.35682 | -82.28471 | 8993 ft | 159 kts | 99° |
| 2026-04-29 15:53 | 8.35475 | -82.27387 | 8990 ft | 158 kts | 99° |
| 2026-04-29 15:53 | 8.35269 | -82.26303 | 8993 ft | 156 kts | 99° |
| 2026-04-29 15:53 | 8.35064 | -82.25222 | 8997 ft | 155 kts | 99° |
| 2026-04-29 15:54 | 8.34863 | -82.24155 | 9009 ft | 159 kts | 99° |
| 2026-04-29 15:54 | 8.34651 | -82.23053 | 8996 ft | 162 kts | 99° |
| 2026-04-29 15:54 | 8.34438 | -82.21946 | 8998 ft | 159 kts | 99° |
| 2026-04-29 15:54 | 8.34232 | -82.20860 | 8996 ft | 157 kts | 99° |
| 2026-04-29 15:55 | 8.34024 | -82.19771 | 8999 ft | 156 kts | 99° |
| 2026-04-29 15:55 | 8.33821 | -82.18699 | 9003 ft | 155 kts | 99° |
| 2026-04-29 15:55 | 8.33617 | -82.17630 | 9007 ft | 155 kts | 99° |
| 2026-04-29 15:55 | 8.33413 | -82.16564 | 9004 ft | 155 kts | 99° |
| 2026-04-29 15:56 | 8.33210 | -82.15500 | 9002 ft | 155 kts | 99° |
| 2026-04-29 15:56 | 8.33005 | -82.14421 | 9010 ft | 154 kts | 99° |
| 2026-04-29 15:56 | 8.32802 | -82.13357 | 9009 ft | 155 kts | 99° |
| 2026-04-29 15:56 | 8.32599 | -82.12298 | 9013 ft | 154 kts | 99° |
| 2026-04-29 15:57 | 8.32395 | -82.11227 | 9029 ft | 156 kts | 99° |
| 2026-04-29 15:57 | 8.32193 | -82.10160 | 9012 ft | 156 kts | 99° |
| 2026-04-29 15:57 | 8.31983 | -82.09065 | 9020 ft | 158 kts | 99° |
| 2026-04-29 15:57 | 8.31776 | -82.07981 | 9036 ft | 160 kts | 99° |
| 2026-04-29 15:58 | 8.31563 | -82.06872 | 9027 ft | 160 kts | 99° |
| 2026-04-29 15:58 | 8.31352 | -82.05770 | 9036 ft | 162 kts | 99° |
| 2026-04-29 15:58 | 8.31138 | -82.04643 | 9027 ft | 162 kts | 99° |
| 2026-04-29 15:58 | 8.30925 | -82.03537 | 9037 ft | 160 kts | 99° |
| 2026-04-29 15:59 | 8.30717 | -82.02436 | 9039 ft | 160 kts | 99° |
| 2026-04-29 15:59 | 8.30500 | -82.01329 | 9029 ft | 159 kts | 100° |
| 2026-04-29 15:59 | 8.30278 | -82.00243 | 9038 ft | 160 kts | 100° |
| 2026-04-29 15:59 | 8.30058 | -81.99141 | 9034 ft | 159 kts | 99° |
| 2026-04-29 16:00 | 8.29840 | -81.98042 | 9031 ft | 159 kts | 100° |
| 2026-04-29 16:00 | 8.29622 | -81.96958 | 9029 ft | 158 kts | 100° |
| 2026-04-29 16:00 | 8.29404 | -81.95864 | 9036 ft | 157 kts | 99° |
| 2026-04-29 16:00 | 8.29188 | -81.94777 | 9040 ft | 159 kts | 100° |
| 2026-04-29 16:01 | 8.28967 | -81.93668 | 9033 ft | 161 kts | 99° |
| 2026-04-29 16:01 | 8.28747 | -81.92578 | 9036 ft | 159 kts | 100° |
| 2026-04-29 16:01 | 8.28528 | -81.91484 | 9034 ft | 158 kts | 99° |
| 2026-04-29 16:01 | 8.28313 | -81.90400 | 9035 ft | 157 kts | 99° |
| 2026-04-29 16:02 | 8.28099 | -81.89328 | 9033 ft | 156 kts | 99° |
| 2026-04-29 16:02 | 8.27882 | -81.88245 | 9035 ft | 157 kts | 99° |
| 2026-04-29 16:02 | 8.27669 | -81.87172 | 9035 ft | 156 kts | 99° |
| 2026-04-29 16:02 | 8.27452 | -81.86084 | 9042 ft | 158 kts | 99° |
| 2026-04-29 16:03 | 8.27233 | -81.85000 | 9033 ft | 160 kts | 99° |
| 2026-04-29 16:03 | 8.27013 | -81.83899 | 9033 ft | 158 kts | 99° |
| 2026-04-29 16:03 | 8.26797 | -81.82819 | 9035 ft | 157 kts | 100° |
| 2026-04-29 16:03 | 8.26583 | -81.81735 | 9036 ft | 158 kts | 100° |
| 2026-04-29 16:04 | 8.26363 | -81.80648 | 9031 ft | 157 kts | 99° |
| 2026-04-29 16:04 | 8.26150 | -81.79586 | 9037 ft | 155 kts | 100° |
| 2026-04-29 16:04 | 8.25937 | -81.78521 | 9039 ft | 155 kts | 99° |
| 2026-04-29 16:04 | 8.25722 | -81.77447 | 9037 ft | 154 kts | 99° |
| 2026-04-29 16:05 | 8.25513 | -81.76399 | 9036 ft | 154 kts | 99° |
| 2026-04-29 16:05 | 8.25298 | -81.75330 | 9035 ft | 154 kts | 99° |
| 2026-04-29 16:05 | 8.25088 | -81.74273 | 9049 ft | 155 kts | 99° |
| 2026-04-29 16:05 | 8.24870 | -81.73183 | 9036 ft | 157 kts | 100° |
| 2026-04-29 16:06 | 8.24653 | -81.72108 | 9039 ft | 158 kts | 99° |
| 2026-04-29 16:06 | 8.24438 | -81.71033 | 9037 ft | 156 kts | 99° |
| 2026-04-29 16:06 | 8.24222 | -81.69953 | 9035 ft | 155 kts | 99° |
| 2026-04-29 16:06 | 8.24008 | -81.68886 | 9031 ft | 156 kts | 99° |
| 2026-04-29 16:07 | 8.23795 | -81.67819 | 9037 ft | 156 kts | 99° |
| 2026-04-29 16:07 | 8.23651 | -81.67099 | 9034 ft | 156 kts | 99° |
| 2026-04-29 16:07 | 8.23364 | -81.65671 | 9032 ft | 156 kts | 99° |
| 2026-04-29 16:07 | 8.23151 | -81.64608 | 9033 ft | 156 kts | 99° |
| 2026-04-29 16:08 | 8.22931 | -81.63513 | 9040 ft | 161 kts | 99° |
| 2026-04-29 16:08 | 8.22710 | -81.62414 | 9047 ft | 159 kts | 99° |
| 2026-04-29 16:08 | 8.22491 | -81.61317 | 9032 ft | 161 kts | 99° |
| 2026-04-29 16:08 | 8.22271 | -81.60220 | 9033 ft | 160 kts | 99° |
| 2026-04-29 16:09 | 8.22049 | -81.59117 | 9031 ft | 159 kts | 99° |
| 2026-04-29 16:09 | 8.21832 | -81.58033 | 9028 ft | 158 kts | 99° |
| 2026-04-29 16:09 | 8.21614 | -81.56945 | 9027 ft | 156 kts | 99° |
| 2026-04-29 16:09 | 8.21398 | -81.55872 | 9030 ft | 157 kts | 99° |
| 2026-04-29 16:10 | 8.21184 | -81.54800 | 9028 ft | 157 kts | 99° |
| 2026-04-29 16:10 | 8.20965 | -81.53718 | 9026 ft | 156 kts | 99° |
| 2026-04-29 16:10 | 8.20752 | -81.52655 | 9025 ft | 156 kts | 99° |
| 2026-04-29 16:10 | 8.20536 | -81.51582 | 9025 ft | 155 kts | 99° |
| 2026-04-29 16:11 | 8.20322 | -81.50521 | 9026 ft | 155 kts | 99° |
| 2026-04-29 16:11 | 8.20108 | -81.49449 | 9027 ft | 157 kts | 99° |
| 2026-04-29 16:11 | 8.19893 | -81.48382 | 9028 ft | 155 kts | 100° |
| 2026-04-29 16:11 | 8.19679 | -81.47326 | 9036 ft | 154 kts | 99° |
| 2026-04-29 16:12 | 8.19462 | -81.46254 | 9024 ft | 156 kts | 99° |
| 2026-04-29 16:12 | 8.19321 | -81.45537 | 9030 ft | 156 kts | 99° |
| 2026-04-29 16:12 | 8.19028 | -81.44092 | 9044 ft | 157 kts | 99° |
| 2026-04-29 16:12 | 8.18811 | -81.43012 | 9024 ft | 157 kts | 99° |
| 2026-04-29 16:13 | 8.18595 | -81.41936 | 9023 ft | 157 kts | 99° |
| 2026-04-29 16:13 | 8.18376 | -81.40859 | 9031 ft | 155 kts | 99° |
| 2026-04-29 16:13 | 8.18160 | -81.39783 | 9037 ft | 156 kts | 99° |
| 2026-04-29 16:13 | 8.17947 | -81.38717 | 9023 ft | 155 kts | 99° |
| 2026-04-29 16:14 | 8.17730 | -81.37648 | 9027 ft | 156 kts | 99° |
| 2026-04-29 16:14 | 8.17515 | -81.36584 | 9028 ft | 155 kts | 99° |
| 2026-04-29 16:14 | 8.17299 | -81.35508 | 9024 ft | 156 kts | 99° |
| 2026-04-29 16:14 | 8.17081 | -81.34427 | 9021 ft | 157 kts | 99° |
| 2026-04-29 16:15 | 8.16864 | -81.33354 | 9029 ft | 157 kts | 99° |
| 2026-04-29 16:15 | 8.16646 | -81.32274 | 9027 ft | 158 kts | 99° |
| 2026-04-29 16:15 | 8.16429 | -81.31185 | 9028 ft | 158 kts | 99° |
| 2026-04-29 16:15 | 8.16210 | -81.30114 | 9028 ft | 156 kts | 99° |
| 2026-04-29 16:16 | 8.15990 | -81.29025 | 9020 ft | 158 kts | 98° |
| 2026-04-29 16:16 | 8.15776 | -81.27938 | 9018 ft | 158 kts | 99° |
| 2026-04-29 16:16 | 8.15554 | -81.26850 | 9017 ft | 159 kts | 99° |
| 2026-04-29 16:16 | 8.15326 | -81.25749 | 9029 ft | 160 kts | 99° |
| 2026-04-29 16:17 | 8.15108 | -81.24659 | 9022 ft | 160 kts | 98° |
| 2026-04-29 16:17 | 8.14890 | -81.23564 | 9029 ft | 158 kts | 98° |
| 2026-04-29 16:17 | 8.14671 | -81.22483 | 9025 ft | 156 kts | 99° |
| 2026-04-29 16:17 | 8.14454 | -81.21411 | 9015 ft | 155 kts | 99° |
| 2026-04-29 16:18 | 8.14240 | -81.20353 | 9010 ft | 155 kts | 99° |
| 2026-04-29 16:18 | 8.14026 | -81.19287 | 9020 ft | 153 kts | 99° |
| 2026-04-29 16:18 | 8.13815 | -81.18240 | 9021 ft | 153 kts | 99° |
| 2026-04-29 16:18 | 8.13596 | -81.17161 | 9016 ft | 156 kts | 99° |
| 2026-04-29 16:19 | 8.13378 | -81.16085 | 9030 ft | 157 kts | 98° |
| 2026-04-29 16:19 | 8.13159 | -81.15002 | 9024 ft | 156 kts | 99° |
| 2026-04-29 16:19 | 8.12942 | -81.13930 | 9020 ft | 158 kts | 99° |
| 2026-04-29 16:19 | 8.12722 | -81.12837 | 9018 ft | 157 kts | 99° |
| 2026-04-29 16:20 | 8.12508 | -81.11767 | 9020 ft | 157 kts | 99° |
| 2026-04-29 16:20 | 8.12286 | -81.10683 | 9028 ft | 157 kts | 98° |
| 2026-04-29 16:20 | 8.12068 | -81.09598 | 9017 ft | 158 kts | 99° |
| 2026-04-29 16:20 | 8.11844 | -81.08500 | 9013 ft | 161 kts | 99° |
| 2026-04-29 16:21 | 8.11625 | -81.07411 | 9015 ft | 159 kts | 99° |
| 2026-04-29 16:21 | 8.11478 | -81.06679 | 9031 ft | 161 kts | 99° |
| 2026-04-29 16:21 | 8.11254 | -81.05578 | 9015 ft | 160 kts | 99° |
| 2026-04-29 16:21 | 8.10957 | -81.04118 | 9014 ft | 158 kts | 98° |
| 2026-04-29 16:22 | 8.10810 | -81.03391 | 9026 ft | 160 kts | 98° |
| 2026-04-29 16:22 | 8.10585 | -81.02278 | 9017 ft | 161 kts | 99° |
| 2026-04-29 16:22 | 8.10363 | -81.01186 | 9011 ft | 158 kts | 99° |
| 2026-04-29 16:22 | 8.10146 | -81.00107 | 9012 ft | 157 kts | 99° |
| 2026-04-29 16:23 | 8.09927 | -80.99017 | 9010 ft | 157 kts | 99° |
| 2026-04-29 16:23 | 8.09708 | -80.97945 | 9016 ft | 158 kts | 99° |
| 2026-04-29 16:23 | 8.09488 | -80.96859 | 9025 ft | 160 kts | 99° |
| 2026-04-29 16:23 | 8.09262 | -80.95744 | 9024 ft | 162 kts | 99° |
| 2026-04-29 16:24 | 8.09037 | -80.94633 | 9020 ft | 163 kts | 98° |
| 2026-04-29 16:24 | 8.09102 | -80.93522 | 9012 ft | 159 kts | 68° |
| 2026-04-29 16:24 | 8.09605 | -80.92553 | 9016 ft | 156 kts | 60° |
| 2026-04-29 16:24 | 8.10115 | -80.91595 | 9014 ft | 155 kts | 62° |
| 2026-04-29 16:25 | 8.10617 | -80.90620 | 9014 ft | 156 kts | 62° |
| 2026-04-29 16:25 | 8.11110 | -80.89655 | 9020 ft | 156 kts | 62° |
| 2026-04-29 16:25 | 8.11614 | -80.88671 | 9020 ft | 159 kts | 62° |
| 2026-04-29 16:25 | 8.12118 | -80.87685 | 9015 ft | 160 kts | 62° |
| 2026-04-29 16:26 | 8.12627 | -80.86686 | 9018 ft | 158 kts | 62° |
| 2026-04-29 16:26 | 8.13124 | -80.85711 | 9022 ft | 158 kts | 62° |
| 2026-04-29 16:26 | 8.13631 | -80.84724 | 9012 ft | 156 kts | 62° |
| 2026-04-29 16:26 | 8.14120 | -80.83762 | 9011 ft | 154 kts | 62° |
| 2026-04-29 16:27 | 8.14615 | -80.82794 | 9010 ft | 153 kts | 62° |
| 2026-04-29 16:27 | 8.15104 | -80.81841 | 9024 ft | 155 kts | 62° |
| 2026-04-29 16:27 | 8.15595 | -80.80875 | 9016 ft | 155 kts | 62° |
| 2026-04-29 16:27 | 8.16090 | -80.79904 | 9014 ft | 155 kts | 62° |
| 2026-04-29 16:28 | 8.16578 | -80.78943 | 9021 ft | 156 kts | 62° |
| 2026-04-29 16:28 | 8.17086 | -80.77958 | 9019 ft | 157 kts | 62° |
| 2026-04-29 16:28 | 8.17583 | -80.76984 | 9015 ft | 157 kts | 62° |
| 2026-04-29 16:28 | 8.18076 | -80.76015 | 9017 ft | 155 kts | 62° |
| 2026-04-29 16:29 | 8.18573 | -80.75046 | 9013 ft | 155 kts | 62° |
| 2026-04-29 16:29 | 8.19062 | -80.74085 | 9011 ft | 154 kts | 62° |
| 2026-04-29 16:29 | 8.19561 | -80.73109 | 9018 ft | 157 kts | 62° |
| 2026-04-29 16:29 | 8.20060 | -80.72131 | 9023 ft | 158 kts | 62° |
| 2026-04-29 16:30 | 8.20556 | -80.71155 | 9017 ft | 156 kts | 62° |
| 2026-04-29 16:30 | 8.21055 | -80.70174 | 9021 ft | 156 kts | 62° |
| 2026-04-29 16:30 | 8.21553 | -80.69206 | 9021 ft | 158 kts | 62° |
| 2026-04-29 16:30 | 8.22064 | -80.68204 | 9012 ft | 160 kts | 62° |
| 2026-04-29 16:31 | 8.22566 | -80.67217 | 9011 ft | 157 kts | 62° |
| 2026-04-29 16:31 | 8.23061 | -80.66246 | 9012 ft | 155 kts | 62° |
| 2026-04-29 16:31 | 8.23559 | -80.65276 | 9022 ft | 155 kts | 62° |
| 2026-04-29 16:31 | 8.24053 | -80.64306 | 9024 ft | 158 kts | 62° |
| 2026-04-29 16:32 | 8.24555 | -80.63314 | 9027 ft | 160 kts | 62° |
| 2026-04-29 16:32 | 8.25064 | -80.62315 | 9021 ft | 159 kts | 62° |
| 2026-04-29 16:32 | 8.25565 | -80.61336 | 9014 ft | 157 kts | 62° |
| 2026-04-29 16:32 | 8.26069 | -80.60348 | 9022 ft | 157 kts | 62° |
| 2026-04-29 16:33 | 8.27071 | -80.58383 | 9015 ft | 159 kts | 62° |
| 2026-04-29 16:33 | 8.27583 | -80.57380 | 9021 ft | 160 kts | 62° |
| 2026-04-29 16:33 | 8.28088 | -80.56383 | 9023 ft | 160 kts | 62° |
| 2026-04-29 16:34 | 8.28594 | -80.55396 | 9015 ft | 158 kts | 62° |
| 2026-04-29 16:34 | 8.29094 | -80.54414 | 9024 ft | 158 kts | 62° |
| 2026-04-29 16:34 | 8.29600 | -80.53421 | 9008 ft | 158 kts | 62° |
| 2026-04-29 16:34 | 8.30096 | -80.52448 | 9008 ft | 156 kts | 62° |
| 2026-04-29 16:35 | 8.30593 | -80.51473 | 9008 ft | 154 kts | 62° |
| 2026-04-29 16:35 | 8.31083 | -80.50511 | 9016 ft | 157 kts | 61° |
| 2026-04-29 16:35 | 8.31583 | -80.49531 | 9011 ft | 157 kts | 62° |
| 2026-04-29 16:35 | 8.32081 | -80.48550 | 9007 ft | 155 kts | 62° |
| 2026-04-29 16:36 | 8.32573 | -80.47585 | 9017 ft | 157 kts | 62° |
| 2026-04-29 16:36 | 8.33068 | -80.46613 | 9011 ft | 155 kts | 62° |
| 2026-04-29 16:36 | 8.33557 | -80.45654 | 9011 ft | 154 kts | 61° |
| 2026-04-29 16:36 | 8.34044 | -80.44699 | 9010 ft | 153 kts | 62° |
| 2026-04-29 16:37 | 8.34530 | -80.43743 | 9006 ft | 152 kts | 62° |
| 2026-04-29 16:37 | 8.35013 | -80.42795 | 8949 ft | 158 kts | 62° |
| 2026-04-29 16:37 | 8.35527 | -80.41783 | 8826 ft | 162 kts | 62° |
| 2026-04-29 16:37 | 8.35876 | -80.41102 | 8752 ft | 165 kts | 62° |
| 2026-04-29 16:38 | 8.36581 | -80.39714 | 8606 ft | 169 kts | 62° |
| 2026-04-29 16:38 | 8.37126 | -80.38642 | 8477 ft | 171 kts | 61° |
| 2026-04-29 16:38 | 8.37671 | -80.37579 | 8369 ft | 175 kts | 62° |
| 2026-04-29 16:38 | 8.38225 | -80.36480 | 8241 ft | 175 kts | 61° |
| 2026-04-29 16:39 | 8.38783 | -80.35384 | 8120 ft | 174 kts | 61° |
| 2026-04-29 16:39 | 8.39337 | -80.34303 | 8001 ft | 174 kts | 61° |
| 2026-04-29 16:39 | 8.39896 | -80.33198 | 7882 ft | 176 kts | 61° |
| 2026-04-29 16:39 | 8.40455 | -80.32102 | 7767 ft | 176 kts | 61° |
| 2026-04-29 16:40 | 8.41012 | -80.31007 | 7654 ft | 177 kts | 61° |
| 2026-04-29 16:40 | 8.41586 | -80.29880 | 7538 ft | 180 kts | 61° |
| 2026-04-29 16:40 | 8.42155 | -80.28759 | 7424 ft | 180 kts | 61° |
| 2026-04-29 16:40 | 8.42732 | -80.27625 | 7304 ft | 180 kts | 61° |
| 2026-04-29 16:41 | 8.43303 | -80.26502 | 7176 ft | 179 kts | 61° |
| 2026-04-29 16:41 | 8.43864 | -80.25399 | 7060 ft | 178 kts | 61° |
| 2026-04-29 16:41 | 8.44433 | -80.24281 | 6943 ft | 177 kts | 61° |
| 2026-04-29 16:41 | 8.44992 | -80.23180 | 6826 ft | 176 kts | 61° |
| 2026-04-29 16:42 | 8.45548 | -80.22087 | 6711 ft | 176 kts | 61° |
| 2026-04-29 16:42 | 8.46110 | -80.20983 | 6595 ft | 176 kts | 61° |
| 2026-04-29 16:42 | 8.46665 | -80.19890 | 6482 ft | 176 kts | 61° |
| 2026-04-29 16:42 | 8.47234 | -80.18768 | 6363 ft | 179 kts | 61° |
| 2026-04-29 16:43 | 8.47800 | -80.17660 | 6247 ft | 179 kts | 61° |
| 2026-04-29 16:43 | 8.48368 | -80.16540 | 6120 ft | 178 kts | 60° |
| 2026-04-29 16:43 | 8.48928 | -80.15439 | 6008 ft | 178 kts | 60° |
| 2026-04-29 16:43 | 8.49498 | -80.14314 | 5877 ft | 178 kts | 61° |
| 2026-04-29 16:44 | 8.50062 | -80.13205 | 5769 ft | 180 kts | 60° |
| 2026-04-29 16:44 | 8.50640 | -80.12070 | 5642 ft | 181 kts | 61° |
| 2026-04-29 16:44 | 8.51216 | -80.10934 | 5532 ft | 181 kts | 60° |
| 2026-04-29 16:44 | 8.51788 | -80.09806 | 5392 ft | 181 kts | 61° |
| 2026-04-29 16:45 | 8.52364 | -80.08673 | 5273 ft | 181 kts | 61° |
| 2026-04-29 16:45 | 8.52938 | -80.07544 | 5152 ft | 179 kts | 61° |
| 2026-04-29 16:45 | 8.53500 | -80.06436 | 5028 ft | 180 kts | 61° |
| 2026-04-29 16:45 | 8.54069 | -80.05317 | 5005 ft | 175 kts | 60° |
| 2026-04-29 16:46 | 8.54617 | -80.04234 | 4998 ft | 170 kts | 61° |
| 2026-04-29 16:46 | 8.55152 | -80.03179 | 4998 ft | 167 kts | 62° |
| 2026-04-29 16:46 | 8.55676 | -80.02149 | 5010 ft | 165 kts | 60° |
| 2026-04-29 16:46 | 8.56198 | -80.01124 | 5003 ft | 164 kts | 60° |
| 2026-04-29 16:47 | 8.56721 | -80.00094 | 5008 ft | 164 kts | 60° |
| 2026-04-29 16:47 | 8.57247 | -79.99057 | 5001 ft | 164 kts | 61° |
| 2026-04-29 16:47 | 8.57759 | -79.98044 | 4999 ft | 164 kts | 61° |
| 2026-04-29 16:47 | 8.58280 | -79.97020 | 4995 ft | 162 kts | 61° |
| 2026-04-29 16:48 | 8.58796 | -79.96006 | 5002 ft | 162 kts | 60° |
| 2026-04-29 16:48 | 8.59308 | -79.94993 | 5005 ft | 162 kts | 61° |
| 2026-04-29 16:48 | 8.59818 | -79.93986 | 5000 ft | 162 kts | 60° |
| 2026-04-29 16:48 | 8.60336 | -79.92968 | 5001 ft | 161 kts | 61° |
| 2026-04-29 16:49 | 8.60844 | -79.91969 | 5000 ft | 162 kts | 61° |
| 2026-04-29 16:49 | 8.61358 | -79.90954 | 5000 ft | 162 kts | 61° |
| 2026-04-29 16:49 | 8.61874 | -79.89933 | 5007 ft | 164 kts | 60° |
| 2026-04-29 16:49 | 8.62400 | -79.88899 | 5015 ft | 166 kts | 61° |
| 2026-04-29 16:50 | 8.62928 | -79.87859 | 5005 ft | 168 kts | 61° |
| 2026-04-29 16:50 | 8.63459 | -79.86809 | 5000 ft | 166 kts | 60° |
| 2026-04-29 16:50 | 8.63984 | -79.85772 | 4998 ft | 164 kts | 60° |
| 2026-04-29 16:50 | 8.64508 | -79.84742 | 5002 ft | 166 kts | 60° |
| 2026-04-29 16:51 | 8.65027 | -79.83716 | 4989 ft | 164 kts | 61° |
| 2026-04-29 16:51 | 8.65546 | -79.82691 | 4989 ft | 163 kts | 61° |
| 2026-04-29 16:51 | 8.66057 | -79.81683 | 4985 ft | 162 kts | 60° |
| 2026-04-29 16:51 | 8.66572 | -79.80670 | 4985 ft | 162 kts | 61° |
| 2026-04-29 16:52 | 8.67086 | -79.79653 | 4983 ft | 161 kts | 61° |
| 2026-04-29 16:52 | 8.67595 | -79.78648 | 4978 ft | 162 kts | 60° |
| 2026-04-29 16:52 | 8.68117 | -79.77631 | 4982 ft | 163 kts | 60° |
| 2026-04-29 16:52 | 8.68652 | -79.76628 | 4872 ft | 159 kts | 59° |
| 2026-04-29 16:53 | 8.69164 | -79.75663 | 4679 ft | 156 kts | 60° |
| 2026-04-29 16:53 | 8.69673 | -79.74695 | 4470 ft | 152 kts | 60° |
| 2026-04-29 16:53 | 8.70165 | -79.73762 | 4268 ft | 151 kts | 60° |
| 2026-04-29 16:53 | 8.70653 | -79.72831 | 4062 ft | 148 kts | 59° |
| 2026-04-29 16:54 | 8.71129 | -79.71924 | 3857 ft | 143 kts | 60° |
| 2026-04-29 16:54 | 8.71587 | -79.71055 | 3656 ft | 140 kts | 60° |
| 2026-04-29 16:54 | 8.72042 | -79.70191 | 3453 ft | 137 kts | 60° |
| 2026-04-29 16:54 | 8.72484 | -79.69351 | 3261 ft | 136 kts | 60° |
| 2026-04-29 16:55 | 8.72914 | -79.68510 | 3169 ft | 128 kts | 65° |
| 2026-04-29 16:55 | 8.73004 | -79.67654 | 3167 ft | 118 kts | 89° |
| 2026-04-29 16:55 | 8.72996 | -79.66862 | 3164 ft | 109 kts | 86° |
| 2026-04-29 16:55 | 8.72997 | -79.66094 | 3083 ft | 112 kts | 86° |
| 2026-04-29 16:56 | 8.72997 | -79.65289 | 2964 ft | 116 kts | 87° |
| 2026-04-29 16:56 | 8.72996 | -79.64474 | 2846 ft | 117 kts | 87° |
| 2026-04-29 16:56 | 8.72996 | -79.63644 | 2722 ft | 118 kts | 87° |
| 2026-04-29 16:56 | 8.72995 | -79.62813 | 2601 ft | 118 kts | 86° |
| 2026-04-29 16:57 | 8.72995 | -79.61991 | 2481 ft | 116 kts | 87° |
| 2026-04-29 16:57 | 8.72995 | -79.61187 | 2380 ft | 113 kts | 87° |
| 2026-04-29 16:57 | 8.73109 | -79.60456 | 2379 ft | 99 kts | 56° |
| 2026-04-29 16:57 | 8.73622 | -79.60029 | 2378 ft | 95 kts | 19° |
| 2026-04-29 16:58 | 8.74278 | -79.59975 | 2340 ft | 100 kts | 359° |
| 2026-04-29 16:58 | 8.75007 | -79.59970 | 2239 ft | 110 kts | 1° |
| 2026-04-29 16:58 | 8.75794 | -79.59966 | 2104 ft | 114 kts | 0° |
| 2026-04-29 16:58 | 8.76603 | -79.59965 | 1973 ft | 117 kts | 1° |
| 2026-04-29 16:59 | 8.77417 | -79.59965 | 1838 ft | 120 kts | 1° |
| 2026-04-29 16:59 | 8.78223 | -79.59964 | 1790 ft | 109 kts | 1° |
| 2026-04-29 16:59 | 8.78942 | -79.59965 | 1790 ft | 97 kts | 1° |
| 2026-04-29 16:59 | 8.79609 | -79.59967 | 1796 ft | 93 kts | 1° |
| 2026-04-29 17:00 | 8.80251 | -79.59968 | 1787 ft | 92 kts | 1° |
| 2026-04-29 17:00 | 8.80876 | -79.59970 | 1794 ft | 88 kts | 1° |
| 2026-04-29 17:00 | 8.81498 | -79.59972 | 1817 ft | 95 kts | 0° |
| 2026-04-29 17:00 | 8.82203 | -79.59969 | 1712 ft | 107 kts | 1° |
| 2026-04-29 17:01 | 8.82970 | -79.59965 | 1548 ft | 110 kts | 1° |
| 2026-04-29 17:01 | 8.83731 | -79.59964 | 1378 ft | 109 kts | 1° |
| 2026-04-29 17:01 | 8.84486 | -79.59964 | 1199 ft | 106 kts | 1° |
| 2026-04-29 17:01 | 8.85188 | -79.59964 | 1045 ft | 96 kts | 360° |
| 2026-04-29 17:02 | 8.85826 | -79.59965 | 889 ft | 89 kts | 358° |
| 2026-04-29 17:02 | 8.86437 | -79.59965 | 746 ft | 88 kts | 357° |
| 2026-04-29 17:02 | 8.87016 | -79.59964 | 651 ft | 77 kts | 356° |
| 2026-04-29 17:02 | 8.87535 | -79.59966 | 608 ft | 75 kts | 354° |
| 2026-04-29 17:03 | 8.88082 | -79.59969 | 553 ft | 83 kts | 352° |
| 2026-04-29 17:03 | 8.88675 | -79.59968 | 455 ft | 86 kts | 357° |
| 2026-04-29 17:03 | 8.89249 | -79.59953 | 292 ft | 79 kts | 357° |
| 2026-04-29 17:03 | 8.89784 | -79.59965 | 214 ft | 77 kts | 354° |
| 2026-04-29 17:04 | 8.90307 | -79.59960 | 71 ft | 77 kts | 351° |
| 2026-04-29 17:04 | 8.90780 | -79.59968 | 28 ft | 55 kts | 348° |
| 2026-04-29 17:04 | 8.91038 | -79.59970 | 32 ft | 26 kts | 2° |
| 2026-04-29 17:04 | 8.91147 | -79.59965 | 34 ft | 22 kts | 0° |
| 2026-04-29 17:05 | 8.91281 | -79.59961 | 37 ft | 17 kts | 1° |
| 2026-04-29 17:05 | 8.91388 | -79.59960 | 39 ft | 14 kts | 1° |
| 2026-04-29 17:05 | 8.91477 | -79.59947 | 40 ft | 13 kts | 33° |
| 2026-04-29 17:05 | 8.91496 | -79.59867 | 39 ft | 13 kts | 85° |
| 2026-04-29 17:06 | 8.91440 | -79.59816 | 38 ft | 14 kts | 179° |
| 2026-04-29 17:06 | 8.91363 | -79.59764 | 37 ft | 14 kts | 108° |
| 2026-04-29 17:06 | 8.91393 | -79.59706 | 38 ft | 7 kts | 296° |
| 2026-04-29 17:06 | 8.91392 | -79.59714 | 37 ft | 0 kts | 223° |